Aérodrome :
LOGIN :

S'inscrire | Disclaimer

   EN    FR    IT 

 










Légende :    VFR   VFR Marginal   IFR   IFR Intensif   IFR Très Intensif
Visi : 
Plafond : 
>= 8 km
>= 3000ft
5 à 8 km
1000 à 3000 ft
1500m à 5 km
500 à 1000 ft
800 à 1500m
200 à 500 ft
< 800m
< 200 ft
Symboles :   Orages  Brouillard  Fortes neiges  Fortes précipitations  Vent > 20 kt
SIGMETs :   Divers  Orages  Givrage  Turbulence  Onde Orograph.  Cendres Volcan.







- Altitude de l'aérodrome : 142 ft
- Code IATA : ALC


LEAL - Alicante

DERNIER METAR :
  • 231930Z 06005KT 030V100 CAVOK 25/20 Q1018 NOSIG

METARs EXPIRÉS :
  • 231900Z 07005KT 040V110 CAVOK 26/20 Q1018 NOSIG
  • 231830Z 07007KT 050V110 CAVOK 26/20 Q1018 NOSIG
  • 231800Z 08006KT 050V150 CAVOK 26/20 Q1018 NOSIG
  • 231730Z 08006KT 040V120 9999 FEW024 27/20 Q1018 NOSIG
  • 231700Z 08008KT 050V120 9999 FEW024 27/20 Q1018 NOSIG

TAF TAF LEAL
Valide du 23 à 18h jusqu'au 24 à 18h UTC


231700Z 2318/2418 09010KT 9999 FEW030 TX30/2412Z TN20/2405Z
BECMG 2320/2322 30005KT
BECMG 2408/2410 09010KT
Pas de NOTAMs connus pour ce terrain.



MET'MAP, la Météo Aéronautique d'un coup d'oeil ! - Copyright ORBIFLY Décembre 2007 - Disclaimer

ORBIFLY MET'MAP TEAM :

Programmation & Développement : Alexandra Zaïnal
Conception & Développement : Baudouin d'Aumeries
Co-Programmation & Développement : Marc-Olivier Méhu
Soutien technique & logistique : Manuel Goepfert

Contact : metmap@orbifly.com




SOURCES & CREDITS :

   NOAA